createdAt,value
2018-10-03T00:02:31.014Z,79.80
2018-10-03T00:05:55.492Z,80.16
2018-10-03T00:09:19.909Z,79.61
2018-10-03T00:12:44.350Z,79.45
2018-10-03T00:16:08.776Z,80.28
2018-10-03T00:19:33.227Z,79.91
2018-10-03T00:22:57.648Z,79.99
2018-10-03T00:26:22.053Z,79.84
2018-10-03T00:29:46.496Z,80.94
2018-10-03T00:33:10.932Z,80.15
2018-10-03T00:36:35.355Z,79.54
2018-10-03T00:39:59.837Z,79.32
2018-10-03T00:43:24.313Z,80.20
2018-10-03T00:46:48.747Z,79.35
2018-10-03T00:50:13.202Z,80.03
2018-10-03T00:53:37.601Z,79.96
2018-10-03T00:57:02.063Z,79.99
2018-10-03T01:00:26.485Z,79.33
2018-10-03T01:03:50.872Z,79.34
2018-10-03T01:07:15.270Z,79.39
2018-10-03T01:10:39.678Z,79.43
2018-10-03T01:14:04.100Z,78.99
2018-10-03T01:17:28.553Z,79.24
2018-10-03T01:20:52.982Z,79.35
2018-10-03T01:24:17.387Z,79.67
2018-10-03T01:27:41.809Z,79.51
2018-10-03T01:31:06.246Z,80.24
2018-10-03T01:34:30.659Z,80.83
2018-10-03T01:37:55.110Z,81.42
2018-10-03T01:41:19.513Z,80.70
2018-10-03T01:44:43.979Z,80.25
2018-10-03T01:48:08.414Z,80.73
2018-10-03T01:51:32.824Z,80.73
2018-10-03T01:54:57.317Z,80.36
2018-10-03T01:58:21.772Z,79.72
2018-10-03T02:01:46.212Z,80.42
2018-10-03T02:05:10.607Z,80.21
2018-10-03T02:08:34.998Z,80.09
2018-10-03T02:11:59.419Z,80.33
2018-10-03T02:15:23.828Z,80.27
2018-10-03T02:18:48.248Z,80.61
2018-10-03T02:22:12.681Z,80.25
2018-10-03T02:25:37.074Z,80.48
2018-10-03T02:29:01.525Z,80.53
2018-10-03T02:32:26.041Z,80.18
2018-10-03T02:35:50.513Z,80.73
2018-10-03T02:39:14.964Z,80.89
2018-10-03T02:42:39.440Z,81.17
2018-10-03T02:46:03.865Z,81.39
2018-10-03T02:49:28.335Z,80.87
2018-10-03T02:52:52.727Z,81.32
2018-10-03T02:56:17.150Z,81.86
2018-10-03T02:59:41.633Z,82.45
2018-10-03T03:03:06.069Z,81.78
2018-10-03T03:06:30.526Z,81.96
2018-10-03T03:09:54.957Z,81.60
2018-10-03T03:13:19.348Z,82.46
2018-10-03T03:16:43.764Z,82.45
2018-10-03T03:20:08.237Z,82.43
2018-10-03T03:23:32.620Z,82.05
2018-10-03T03:26:57.073Z,81.56
2018-10-03T03:30:21.481Z,82.84
2018-10-03T03:33:45.928Z,82.07
2018-10-03T03:37:10.372Z,82.93
2018-10-03T03:40:34.751Z,83.66
2018-10-03T03:43:59.188Z,83.10
2018-10-03T03:47:23.574Z,83.46
2018-10-03T03:50:48.028Z,83.23
2018-10-03T03:54:12.468Z,83.87
2018-10-03T03:57:36.961Z,82.92
2018-10-03T04:01:01.531Z,82.73
2018-10-03T04:04:25.981Z,82.73
2018-10-03T04:07:50.372Z,82.27
2018-10-03T04:11:14.783Z,82.58
2018-10-03T04:14:39.226Z,82.75
2018-10-03T04:18:03.687Z,82.86
2018-10-03T04:21:37.995Z,82.54
2018-10-03T04:25:02.427Z,82.28
2018-10-03T04:28:26.841Z,81.91
2018-10-03T04:31:51.224Z,81.37
2018-10-03T04:35:15.685Z,82.18
2018-10-03T04:38:40.084Z,82.45
2018-10-03T04:42:04.498Z,82.53
2018-10-03T04:45:28.939Z,82.03
2018-10-03T04:48:53.451Z,82.08
2018-10-03T04:52:17.785Z,82.16
2018-10-03T04:55:42.196Z,81.24
2018-10-03T04:59:06.891Z,82.96
2018-10-03T05:02:31.326Z,82.86
2018-10-03T05:06:02.491Z,83.35
2018-10-03T05:09:26.926Z,82.45
2018-10-03T05:12:51.360Z,82.77
2018-10-03T05:16:15.875Z,82.90
2018-10-03T05:19:40.274Z,83.21
2018-10-03T05:23:04.816Z,82.36
2018-10-03T05:27:00.321Z,82.37
2018-10-03T05:30:24.727Z,81.31
2018-10-03T05:33:49.178Z,81.34
2018-10-03T05:37:13.586Z,81.66
2018-10-03T05:40:38.041Z,81.32
2018-10-03T05:44:02.501Z,81.92
2018-10-03T05:47:26.873Z,81.14
2018-10-03T05:50:51.323Z,80.65
2018-10-03T05:54:15.761Z,80.10
2018-10-03T05:57:40.433Z,80.66
2018-10-03T06:01:04.874Z,81.36
2018-10-03T06:04:29.281Z,79.65
2018-10-03T06:07:53.756Z,80.15
2018-10-03T06:11:18.196Z,80.83
2018-10-03T06:14:42.649Z,79.61
2018-10-03T06:18:07.165Z,79.43
2018-10-03T06:21:31.615Z,79.03
2018-10-03T06:24:56.079Z,78.98
2018-10-03T06:28:20.606Z,78.98
2018-10-03T06:31:44.968Z,79.03
2018-10-03T06:35:09.398Z,79.11
2018-10-03T06:38:33.870Z,79.35
2018-10-03T06:41:58.333Z,78.38
2018-10-03T06:45:22.751Z,77.73
2018-10-03T06:48:47.177Z,77.35
2018-10-03T06:52:11.642Z,76.70
2018-10-03T06:55:36.112Z,76.29
2018-10-03T06:59:01.378Z,75.93
2018-10-03T07:02:25.799Z,76.28
2018-10-03T07:05:50.313Z,76.30
2018-10-03T07:09:14.724Z,76.38
2018-10-03T07:12:39.223Z,75.42
2018-10-03T07:16:03.669Z,75.88
2018-10-03T07:19:28.146Z,75.46
2018-10-03T07:22:52.715Z,75.49
2018-10-03T07:26:17.322Z,73.81
2018-10-03T07:29:41.934Z,73.84
2018-10-03T07:33:06.504Z,72.16
2018-10-03T07:36:30.945Z,72.32
2018-10-03T07:39:55.449Z,71.70
2018-10-03T07:43:19.866Z,70.70
2018-10-03T07:46:44.391Z,70.41
2018-10-03T07:50:09.324Z,69.99
2018-10-03T07:53:33.784Z,69.64
2018-10-03T07:56:58.304Z,69.98
2018-10-03T08:00:29.158Z,69.65
2018-10-03T08:03:53.702Z,67.73
2018-10-03T08:07:18.613Z,67.75
2018-10-03T08:10:43.079Z,66.86
2018-10-03T08:14:07.633Z,66.97
2018-10-03T08:17:32.240Z,65.40
2018-10-03T08:20:56.824Z,65.74
2018-10-03T08:24:21.359Z,64.30
2018-10-03T08:27:45.792Z,65.03
2018-10-03T08:31:10.225Z,63.45
2018-10-03T08:34:34.714Z,63.14
2018-10-03T08:37:59.176Z,64.06
2018-10-03T08:41:23.632Z,62.37
2018-10-03T08:44:48.108Z,60.69
2018-10-03T08:48:12.509Z,60.83
2018-10-03T08:51:36.963Z,61.00
2018-10-03T08:55:01.420Z,62.67
2018-10-03T08:58:26.555Z,60.46
2018-10-03T09:05:32.561Z,60.08
2018-10-03T09:08:56.943Z,59.63
2018-10-03T09:12:21.390Z,59.12
2018-10-03T09:15:45.789Z,58.26
2018-10-03T09:19:10.280Z,54.95
2018-10-03T09:22:34.688Z,55.17
2018-10-03T09:25:59.185Z,55.59
2018-10-03T09:29:23.750Z,55.56
2018-10-03T09:32:48.183Z,53.95
2018-10-03T09:36:12.675Z,53.14
2018-10-03T09:39:37.323Z,53.37
2018-10-03T09:43:01.712Z,54.02
2018-10-03T09:46:26.236Z,52.15
2018-10-03T09:49:50.633Z,54.27
2018-10-03T09:53:15.084Z,52.54
2018-10-03T09:56:39.549Z,52.53
2018-10-03T10:00:04.512Z,49.98
2018-10-03T10:03:28.916Z,50.09
2018-10-03T10:06:53.312Z,50.12
2018-10-03T10:10:17.784Z,49.21
2018-10-03T10:13:42.263Z,49.87
2018-10-03T10:17:06.730Z,50.49
2018-10-03T10:20:31.167Z,49.28
2018-10-03T10:23:55.702Z,46.99
2018-10-03T10:27:20.141Z,44.92
2018-10-03T10:30:44.546Z,43.14
2018-10-03T10:34:09.035Z,37.36
2018-10-03T10:37:33.529Z,37.02
2018-10-03T10:40:58.125Z,35.15
2018-10-03T10:44:22.496Z,33.75
2018-10-03T10:47:46.960Z,33.32
2018-10-03T10:51:11.467Z,32.48
2018-10-03T10:54:35.868Z,29.51
2018-10-03T10:58:00.334Z,27.50
2018-10-03T11:01:24.732Z,30.00
2018-10-03T11:04:49.169Z,28.14
2018-10-03T11:08:13.661Z,26.03
2018-10-03T11:11:38.131Z,24.89
2018-10-03T11:15:02.540Z,31.27
2018-10-03T11:18:27.026Z,33.79
2018-10-03T11:21:51.483Z,34.83
2018-10-03T11:25:15.909Z,37.63
2018-10-03T11:28:40.409Z,34.27
2018-10-03T11:32:05.122Z,33.30
2018-10-03T11:35:29.582Z,34.42
2018-10-03T11:38:53.963Z,32.31
2018-10-03T11:42:18.389Z,29.01
2018-10-03T11:45:42.812Z,31.00
2018-10-03T11:49:07.455Z,32.29
2018-10-03T11:52:31.864Z,30.98
2018-10-03T11:55:56.264Z,30.59
2018-10-03T11:59:20.732Z,32.81
2018-10-03T12:02:51.753Z,32.71
2018-10-03T12:06:16.175Z,32.48
2018-10-03T12:09:40.585Z,28.18
2018-10-03T12:13:05.052Z,27.66
2018-10-03T12:16:29.447Z,28.25
2018-10-03T12:19:53.905Z,27.79
2018-10-03T12:23:18.363Z,26.94
2018-10-03T12:26:42.817Z,30.22
2018-10-03T12:30:07.318Z,29.16
2018-10-03T12:33:31.997Z,27.18
2018-10-03T12:36:56.344Z,23.11
2018-10-03T12:40:20.943Z,22.16
2018-10-03T12:43:45.391Z,24.21
2018-10-03T12:47:09.797Z,22.94
2018-10-03T12:50:34.196Z,24.34
2018-10-03T12:53:58.662Z,23.45
2018-10-03T12:57:23.095Z,22.58
2018-10-03T13:00:47.570Z,26.37
2018-10-03T13:04:11.995Z,28.11
2018-10-03T13:07:36.417Z,30.95
2018-10-03T13:11:00.826Z,29.29
2018-10-03T13:14:25.260Z,29.11
2018-10-03T13:17:49.670Z,27.62
2018-10-03T13:21:14.083Z,24.92
2018-10-03T13:24:38.521Z,21.64
2018-10-03T13:28:02.976Z,20.06
2018-10-03T13:31:27.365Z,20.40
2018-10-03T13:34:51.774Z,22.69
2018-10-03T13:38:16.185Z,24.29
2018-10-03T13:41:40.720Z,29.26
2018-10-03T13:45:05.206Z,25.61
2018-10-03T13:48:29.660Z,24.85
2018-10-03T13:51:54.066Z,26.37
2018-10-03T13:55:18.498Z,24.59
2018-10-03T13:58:42.953Z,23.43
2018-10-03T14:02:07.385Z,22.91
2018-10-03T14:05:31.827Z,22.63
2018-10-03T14:08:56.295Z,22.19
2018-10-03T14:12:20.699Z,20.85
2018-10-03T14:15:45.137Z,23.53
2018-10-03T14:19:09.505Z,20.08
2018-10-03T14:22:33.924Z,23.97
2018-10-03T14:25:58.359Z,27.21
2018-10-03T14:29:22.858Z,24.42
2018-10-03T14:32:47.263Z,25.77
2018-10-03T14:36:11.632Z,29.14
2018-10-03T14:39:36.276Z,30.75
2018-10-03T14:43:00.704Z,32.57
2018-10-03T14:46:25.232Z,28.82
2018-10-03T14:49:49.670Z,27.93
2018-10-03T14:53:14.193Z,26.17
2018-10-03T14:56:38.803Z,26.88
2018-10-03T15:00:03.381Z,26.39
2018-10-03T15:03:27.840Z,25.29
2018-10-03T15:06:53.153Z,24.81
2018-10-03T15:10:17.644Z,25.69
2018-10-03T15:13:42.059Z,26.29
2018-10-03T15:17:06.733Z,27.87
2018-10-03T15:20:31.204Z,27.51
2018-10-03T15:23:55.630Z,26.50
2018-10-03T15:27:20.058Z,26.93
2018-10-03T15:30:44.486Z,25.70
2018-10-03T15:34:08.954Z,26.87
2018-10-03T15:37:33.397Z,27.12
2018-10-03T15:40:57.847Z,27.28
2018-10-03T15:44:22.312Z,27.97
2018-10-03T15:47:46.777Z,28.10
2018-10-03T15:51:11.277Z,31.32
2018-10-03T15:54:35.726Z,32.48
2018-10-03T15:58:00.141Z,32.72
2018-10-03T16:01:24.567Z,34.59
2018-10-03T16:04:48.996Z,35.60
2018-10-03T16:08:13.518Z,35.82
2018-10-03T16:11:37.916Z,37.18
2018-10-03T16:15:02.370Z,37.78
2018-10-03T16:18:26.914Z,40.28
2018-10-03T16:21:51.444Z,38.91
2018-10-03T16:25:15.982Z,39.90
2018-10-03T16:28:40.623Z,42.15
2018-10-03T16:32:05.139Z,43.38
2018-10-03T16:35:29.657Z,41.34
2018-10-03T16:38:54.267Z,42.36
2018-10-03T16:42:19.011Z,43.70
2018-10-03T16:45:43.883Z,45.64
2018-10-03T16:49:08.344Z,47.15
2018-10-03T16:52:32.936Z,46.91
2018-10-03T16:55:57.749Z,47.19
2018-10-03T16:59:22.491Z,48.61
2018-10-03T17:02:47.408Z,49.29
2018-10-03T17:06:12.309Z,49.68
2018-10-03T17:09:36.741Z,50.46
2018-10-03T17:13:01.200Z,50.60
2018-10-03T17:16:26.533Z,50.01
2018-10-03T17:19:50.951Z,51.57
2018-10-03T17:23:15.368Z,53.16
2018-10-03T17:26:39.815Z,53.83
2018-10-03T17:30:04.374Z,54.45
2018-10-03T17:33:28.874Z,55.36
2018-10-03T17:36:54.281Z,53.91
2018-10-03T17:40:18.746Z,55.52
2018-10-03T17:43:43.499Z,55.40
2018-10-03T17:47:07.920Z,56.70
2018-10-03T17:50:32.351Z,57.07
2018-10-03T17:53:57.030Z,57.34
2018-10-03T17:57:21.483Z,57.33
2018-10-03T18:00:45.932Z,56.71
2018-10-03T18:04:10.334Z,57.67
2018-10-03T18:07:34.831Z,58.04
2018-10-03T18:10:59.243Z,58.39
2018-10-03T18:14:24.280Z,59.40
2018-10-03T18:17:48.713Z,58.33
2018-10-03T18:21:13.293Z,58.58
2018-10-03T18:24:37.767Z,58.07
2018-10-03T18:28:02.222Z,59.18
2018-10-03T18:31:26.674Z,60.07
2018-10-03T18:34:51.043Z,60.70
2018-10-03T18:38:15.520Z,59.95
2018-10-03T18:41:40.550Z,60.28
2018-10-03T18:45:05.159Z,60.38
2018-10-03T18:48:29.613Z,61.77
2018-10-03T18:51:54.036Z,61.33
2018-10-03T18:55:18.438Z,60.53
2018-10-03T18:58:42.878Z,60.45
2018-10-03T19:02:07.616Z,61.45
2018-10-03T19:05:32.110Z,61.66
2018-10-03T19:08:56.530Z,62.34
2018-10-03T19:12:21.017Z,61.98
2018-10-03T19:15:45.476Z,63.39
2018-10-03T19:19:09.904Z,62.76
2018-10-03T19:22:34.344Z,63.52
2018-10-03T19:25:58.756Z,64.63
2018-10-03T19:29:23.279Z,64.11
2018-10-03T19:32:47.745Z,64.13
2018-10-03T19:36:12.213Z,64.82
2018-10-03T19:39:36.608Z,64.50
2018-10-03T19:43:00.994Z,64.88
2018-10-03T19:46:25.400Z,65.04
2018-10-03T19:49:49.892Z,65.72
2018-10-03T19:53:15.263Z,65.72
2018-10-03T19:56:39.746Z,65.82
2018-10-03T20:00:04.320Z,65.52
2018-10-03T20:03:28.972Z,66.25
2018-10-03T20:06:53.303Z,65.95
2018-10-03T20:10:17.707Z,65.73
2018-10-03T20:13:42.203Z,66.58
2018-10-03T20:17:06.836Z,66.28
2018-10-03T20:20:31.286Z,66.91
2018-10-03T20:23:55.722Z,67.76
2018-10-03T20:27:20.219Z,67.59
2018-10-03T20:30:44.593Z,67.12
2018-10-03T20:34:09.224Z,67.48
2018-10-03T20:37:33.689Z,67.08
2018-10-03T20:40:58.066Z,67.98
2018-10-03T20:44:22.491Z,68.13
2018-10-03T20:47:46.871Z,67.18
2018-10-03T20:51:11.332Z,68.33
2018-10-03T20:54:35.759Z,68.62
2018-10-03T20:58:23.352Z,68.04
2018-10-03T21:01:47.837Z,68.78
2018-10-03T21:05:12.260Z,68.54
2018-10-03T21:08:36.689Z,68.24
2018-10-03T21:12:01.080Z,68.59
2018-10-03T21:15:25.511Z,69.86
2018-10-03T21:18:49.872Z,68.65
2018-10-03T21:22:14.265Z,69.60
2018-10-03T21:25:38.666Z,69.74
2018-10-03T21:29:03.073Z,70.32
2018-10-03T21:32:28.534Z,70.42
2018-10-03T21:35:52.978Z,70.43
2018-10-03T21:39:17.554Z,69.64
2018-10-03T21:42:42.023Z,69.71
2018-10-03T21:46:06.547Z,69.68
2018-10-03T21:49:31.039Z,70.33
2018-10-03T21:52:55.526Z,70.96
2018-10-03T21:56:19.916Z,70.19
2018-10-03T21:59:44.303Z,69.76
2018-10-03T22:03:08.741Z,69.53
2018-10-03T22:06:33.179Z,70.07
2018-10-03T22:09:57.552Z,70.24
2018-10-03T22:13:21.964Z,70.83
2018-10-03T22:16:46.375Z,70.70
2018-10-03T22:20:10.847Z,70.10
2018-10-03T22:23:35.255Z,70.50
2018-10-03T22:26:59.710Z,69.96
2018-10-03T22:30:24.094Z,69.84
2018-10-03T22:33:48.509Z,71.13
2018-10-03T22:37:12.941Z,70.81
2018-10-03T22:40:37.359Z,70.94
2018-10-03T22:44:01.936Z,70.65
2018-10-03T22:47:26.341Z,71.33
2018-10-03T22:50:50.758Z,70.28
2018-10-03T22:54:15.141Z,71.10
2018-10-03T22:57:39.526Z,69.66
2018-10-03T23:01:03.940Z,70.80
2018-10-03T23:04:28.727Z,70.83
2018-10-03T23:07:53.232Z,71.64
2018-10-03T23:11:17.642Z,71.01
2018-10-03T23:14:42.048Z,71.89
2018-10-03T23:18:06.683Z,72.17
2018-10-03T23:21:31.096Z,71.93
2018-10-03T23:24:55.557Z,72.28
2018-10-03T23:28:19.982Z,72.38
2018-10-03T23:31:44.390Z,72.21
2018-10-03T23:35:08.865Z,72.13
2018-10-03T23:38:33.257Z,72.70
2018-10-03T23:41:57.749Z,72.12
2018-10-03T23:45:22.111Z,70.92
2018-10-03T23:48:46.543Z,71.83
2018-10-03T23:52:11.021Z,72.35
2018-10-03T23:55:35.489Z,71.18
2018-10-03T23:58:59.904Z,70.81
